Time;durP1;ratioP1;P1;durP2;ratioP2;P2;SDS_P1;SDS_P2;PMS_P1;PMS_P2;Temp;Humidity;BMP_temperature;BMP_pressure;BME280_temperature;BME280_humidity;BME280_pressure;Samples;Min_cycle;Max_cycle;Signal;HPM_P1;HPM_P2
2023/01/28 00:01:57;;;;;;;1.23;0.70;;;3.60;87.20;;;;;;5092002;28;20044;-74
2023/01/28 00:04:23;;;;;;;0.57;0.50;;;3.50;87.70;;;;;;5074040;28;20111;-74
2023/01/28 00:06:49;;;;;;;1.35;0.80;;;3.50;87.10;;;;;;5091833;28;20446;-74
2023/01/28 00:09:14;;;;;;;1.10;0.82;;;3.50;87.10;;;;;;5073884;28;20398;-74
2023/01/28 00:11:41;;;;;;;0.80;0.60;;;3.50;87.10;;;;;;5073643;28;20122;-74
2023/01/28 00:14:07;;;;;;;1.08;0.70;;;3.60;87.20;;;;;;5057233;28;20127;-74
2023/01/28 00:16:33;;;;;;;1.08;0.60;;;3.60;87.10;;;;;;5091796;28;20511;-74
2023/01/28 00:18:58;;;;;;;1.20;0.77;;;3.50;87.00;;;;;;5091990;28;20040;-74
2023/01/28 00:21:25;;;;;;;0.65;0.60;;;3.60;87.00;;;;;;5091531;28;20123;-74
2023/01/28 00:23:53;;;;;;;0.82;0.60;;;3.50;86.90;;;;;;5073512;28;20089;-74
2023/01/28 00:26:20;;;;;;;1.02;0.70;;;3.50;86.90;;;;;;5073676;28;20079;-74
2023/01/28 00:28:47;;;;;;;0.82;0.60;;;3.60;86.90;;;;;;5092047;28;20040;-75
2023/01/28 00:31:19;;;;;;;0.77;0.65;;;3.60;86.90;;;;;;5076168;28;20128;-74
2023/01/28 00:33:46;;;;;;;0.70;0.70;;;3.50;86.90;;;;;;5095239;28;20064;-74
2023/01/28 00:36:13;;;;;;;0.60;0.60;;;3.60;86.90;;;;;;5076798;28;20516;-74
2023/01/28 00:38:39;;;;;;;1.13;0.70;;;3.50;86.90;;;;;;5076818;28;20048;-75
2023/01/28 00:41:09;;;;;;;0.45;0.32;;;3.60;86.90;;;;;;5095006;28;20123;-74
2023/01/28 00:43:35;;;;;;;0.90;0.60;;;3.50;86.80;;;;;;5095302;28;20044;-74
2023/01/28 00:46:01;;;;;;;1.15;0.75;;;3.60;86.80;;;;;;5076874;28;20127;-74
2023/01/28 00:48:27;;;;;;;0.77;0.60;;;3.60;86.80;;;;;;5094699;28;20131;-74
2023/01/28 00:50:52;;;;;;;0.65;0.60;;;3.50;86.80;;;;;;5094552;28;20036;-74
2023/01/28 00:53:18;;;;;;;0.50;0.50;;;3.60;86.80;;;;;;5093321;28;20040;-74
2023/01/28 00:55:44;;;;;;;0.65;0.50;;;3.60;86.80;;;;;;5076633;28;20077;-75
2023/01/28 00:58:09;;;;;;;0.47;0.40;;;3.60;86.80;;;;;;5077194;28;20051;-74
2023/01/28 01:00:35;;;;;;;0.40;0.40;;;3.60;86.80;;;;;;5077344;28;20116;-74
2023/01/28 01:03:01;;;;;;;0.77;0.55;;;3.60;86.90;;;;;;5059617;28;20039;-74
2023/01/28 01:05:28;;;;;;;0.50;0.45;;;3.60;86.90;;;;;;5076273;28;20054;-74
2023/01/28 01:07:54;;;;;;;0.90;0.50;;;3.60;86.90;;;;;;5094872;28;20036;-74
2023/01/28 01:10:20;;;;;;;0.88;0.75;;;3.60;86.90;;;;;;5076276;28;20036;-74
2023/01/28 01:12:47;;;;;;;0.85;0.47;;;3.50;86.90;;;;;;5094850;28;20040;-74
2023/01/28 01:15:13;;;;;;;1.83;0.85;;;3.50;86.80;;;;;;5076233;28;20396;-74
2023/01/28 01:17:40;;;;;;;0.82;0.45;;;3.60;86.90;;;;;;5094251;28;20040;-74
2023/01/28 01:20:09;;;;;;;1.23;0.60;;;3.60;86.90;;;;;;5094535;28;20038;-74
2023/01/28 01:22:35;;;;;;;0.77;0.57;;;3.50;86.90;;;;;;5094124;28;20077;-74
2023/01/28 01:25:03;;;;;;;0.88;0.60;;;3.50;86.90;;;;;;5075790;28;20487;-74
2023/01/28 01:27:29;;;;;;;0.95;0.70;;;3.50;87.00;;;;;;5093941;28;20494;-74
2023/01/28 01:29:55;;;;;;;1.35;0.95;;;3.50;87.00;;;;;;5094012;28;20035;-74
2023/01/28 01:32:21;;;;;;;0.80;0.60;;;3.50;87.00;;;;;;5075812;28;20032;-73
2023/01/28 01:34:47;;;;;;;0.77;0.60;;;3.50;87.00;;;;;;5075594;28;20771;-74
2023/01/28 01:37:13;;;;;;;1.17;0.80;;;3.50;87.00;;;;;;5076100;28;20488;-74
2023/01/28 01:39:39;;;;;;;0.60;0.55;;;3.50;87.10;;;;;;5093822;28;20082;-74
2023/01/28 01:42:05;;;;;;;0.80;0.60;;;3.40;87.00;;;;;;5031789;28;20177;-74
2023/01/28 01:44:59;;;;;;;0.80;0.70;;;3.50;87.00;;;;;;5093644;28;20424;-74
2023/01/28 01:47:32;;;;;;;0.98;0.63;;;3.40;87.00;;;;;;5091464;28;20070;-74
2023/01/28 01:50:00;;;;;;;0.80;0.60;;;3.40;87.00;;;;;;5059509;28;20032;-74
2023/01/28 01:52:32;;;;;;;0.65;0.65;;;3.40;87.00;;;;;;5059113;28;20080;-74
2023/01/28 01:54:59;;;;;;;;;;;3.40;87.00;;;;;;5093896;28;20553;-74
2023/01/28 01:57:31;;;;;;;0.68;0.47;;;3.50;87.00;;;;;;5093354;28;19912;-74
2023/01/28 02:00:04;;;;;;;1.00;0.50;;;3.50;87.00;;;;;;5093926;28;20082;-73
2023/01/28 02:02:38;;;;;;;0.40;0.40;;;3.40;87.00;;;;;;5075050;28;20040;-74
2023/01/28 02:05:06;;;;;;;0.77;0.60;;;3.40;86.90;;;;;;5093354;28;20448;-73
2023/01/28 02:07:31;;;;;;;1.20;0.80;;;3.40;86.90;;;;;;5075005;28;20549;-74
2023/01/28 02:09:57;;;;;;;0.77;0.68;;;3.40;87.30;;;;;;5075253;28;20075;-74
2023/01/28 02:12:29;;;;;;;1.20;0.70;;;3.30;86.90;;;;;;5093488;28;20036;-74
2023/01/28 02:15:02;;;;;;;0.75;0.50;;;3.50;87.00;;;;;;5093397;28;20233;-74
2023/01/28 02:17:28;;;;;;;1.48;0.40;;;3.30;86.90;;;;;;5093104;28;20509;-74
2023/01/28 02:20:17;;;;;;;0.70;0.43;;;3.30;86.90;;;;;;5075375;28;20047;-74
2023/01/28 02:23:07;;;;;;;0.50;0.43;;;3.30;87.00;;;;;;5092835;28;20139;-74
2023/01/28 02:26:07;;;;;;;0.70;0.43;;;3.30;87.00;;;;;;5093131;28;20048;-74
2023/01/28 02:29:07;;;;;;;0.25;0.25;;;3.30;87.00;;;;;;5078017;28;20040;-75
2023/01/28 02:31:41;;;;;;;0.65;0.60;;;3.30;87.00;;;;;;5092973;28;20039;-74
2023/01/28 02:34:21;;;;;;;0.55;0.40;;;3.30;87.00;;;;;;5058044;28;20043;-73
2023/01/28 02:36:56;;;;;;;0.75;0.60;;;3.30;87.00;;;;;;5092999;28;20089;-74
2023/01/28 02:39:28;;;;;;;0.63;0.45;;;3.30;87.00;;;;;;5092805;28;20043;-74
2023/01/28 02:42:06;;;;;;;1.02;0.60;;;3.30;87.00;;;;;;5092993;28;20397;-74
2023/01/28 02:44:32;;;;;;;0.88;0.55;;;3.20;86.90;;;;;;5074935;28;20421;-74
2023/01/28 02:49:41;;;;;;;0.80;0.60;;;3.30;86.90;;;;;;5092853;28;20036;-74
2023/01/28 02:55:35;;;;;;;1.15;0.70;;;3.20;86.90;;;;;;5092572;28;20032;-74
2023/01/28 02:58:30;;;;;;;1.10;0.70;;;3.20;87.50;;;;;;5092714;28;20036;-74
2023/01/28 03:01:09;;;;;;;1.42;0.88;;;3.30;86.90;;;;;;5057604;28;20523;-74
2023/01/28 03:03:43;;;;;;;1.08;0.82;;;3.20;86.90;;;;;;5092619;28;20040;-74
2023/01/28 03:06:17;;;;;;;0.70;0.65;;;3.20;86.90;;;;;;5075545;28;20043;-74
2023/01/28 03:39:10;;;;;;;1.77;0.90;;;2.90;86.90;;;;;;5091719;28;20047;-74
2023/01/28 03:41:36;;;;;;;1.05;0.77;;;3.00;87.00;;;;;;5073766;28;20048;-74
2023/01/28 03:46:41;;;;;;;0.82;0.60;;;3.00;87.00;;;;;;5091687;28;20044;-74
2023/01/28 03:49:07;;;;;;;0.82;0.73;;;3.00;87.00;;;;;;5074155;28;20036;-74
2023/01/28 03:51:32;;;;;;;0.93;0.73;;;3.00;87.00;;;;;;5091999;28;20052;-73
2023/01/28 03:53:58;;;;;;;0.73;0.60;;;3.00;87.00;;;;;;5091656;28;20420;-74
2023/01/28 03:56:27;;;;;;;1.08;0.70;;;2.90;86.90;;;;;;5073627;28;20028;-73
2023/01/28 03:58:55;;;;;;;1.15;0.80;;;3.00;87.00;;;;;;5092231;28;20036;-74
2023/01/28 04:01:21;;;;;;;0.90;0.70;;;3.00;87.00;;;;;;5091601;28;20187;-74
2023/01/28 04:03:46;;;;;;;0.85;0.63;;;3.00;87.00;;;;;;5092292;28;20123;-74
2023/01/28 04:06:12;;;;;;;0.93;0.60;;;3.00;87.00;;;;;;5061163;28;20434;-74
2023/01/28 04:08:38;;;;;;;1.48;0.82;;;3.00;87.00;;;;;;5095225;28;20040;-74
2023/01/28 04:13:43;;;;;;;1.48;0.90;;;3.00;87.00;;;;;;5095155;28;20044;-74
2023/01/28 04:16:10;;;;;;;1.95;1.10;;;2.90;86.90;;;;;;5095063;28;20046;-74
2023/01/28 04:18:35;;;;;;;1.05;0.73;;;2.90;86.90;;;;;;5094992;28;20044;-74
2023/01/28 04:21:01;;;;;;;1.60;0.95;;;2.90;86.90;;;;;;5076916;28;20048;-74
2023/01/28 04:23:28;;;;;;;1.17;0.68;;;2.90;86.80;;;;;;5095118;28;20044;-74
2023/01/28 04:25:54;;;;;;;1.48;1.00;;;2.90;86.80;;;;;;5076679;28;20097;-74
2023/01/28 04:28:20;;;;;;;1.40;0.88;;;2.90;86.80;;;;;;5076713;28;20437;-73
2023/01/28 04:30:45;;;;;;;1.13;0.90;;;2.90;86.70;;;;;;5094777;28;20040;-74
2023/01/28 04:33:12;;;;;;;1.45;0.90;;;2.90;86.70;;;;;;5095083;28;20081;-74
2023/01/28 04:35:37;;;;;;;1.17;0.80;;;2.90;86.70;;;;;;5059780;28;20047;-74
2023/01/28 04:38:03;;;;;;;0.75;0.63;;;2.80;86.70;;;;;;5094802;28;20425;-74
2023/01/28 04:40:29;;;;;;;1.13;0.77;;;2.90;86.70;;;;;;5076527;28;20062;-74
2023/01/28 04:42:55;;;;;;;1.50;0.90;;;2.90;86.60;;;;;;5094661;28;20036;-74
2023/01/28 04:45:21;;;;;;;1.88;0.93;;;2.80;86.50;;;;;;5076653;28;20481;-74
2023/01/28 04:47:47;;;;;;;1.45;0.98;;;2.80;86.50;;;;;;5074486;28;20044;-74
2023/01/28 04:50:13;;;;;;;1.30;0.90;;;2.80;86.60;;;;;;5076626;28;20043;-75
2023/01/28 04:52:39;;;;;;;1.13;0.80;;;2.80;86.50;;;;;;5060435;28;20373;-74
2023/01/28 04:55:05;;;;;;;1.05;0.75;;;2.80;86.50;;;;;;5076612;28;20032;-74
2023/01/28 04:57:31;;;;;;;1.33;0.95;;;2.70;86.50;;;;;;5094478;28;20036;-74
2023/01/28 04:59:56;;;;;;;1.00;0.60;;;2.80;86.50;;;;;;5076287;28;20451;-74
2023/01/28 05:02:22;;;;;;;0.95;0.80;;;2.70;86.50;;;;;;5095109;28;20494;-74
2023/01/28 05:04:48;;;;;;;1.00;0.60;;;2.70;86.50;;;;;;5076622;28;20124;-73
2023/01/28 05:07:13;;;;;;;1.42;0.90;;;2.80;86.50;;;;;;5076516;28;20155;-73
2023/01/28 05:09:39;;;;;;;1.30;0.80;;;2.80;86.50;;;;;;5095268;28;20065;-74
2023/01/28 05:12:05;;;;;;;1.83;1.02;;;2.80;86.50;;;;;;5095101;28;20044;-73
2023/01/28 05:14:30;;;;;;;1.42;0.77;;;2.80;86.50;;;;;;5094962;28;20043;-75
2023/01/28 05:16:56;;;;;;;0.77;0.50;;;2.80;86.40;;;;;;5094134;28;20515;-74
2023/01/28 05:19:22;;;;;;;1.20;0.80;;;2.70;86.30;;;;;;5076128;28;20512;-74
2023/01/28 05:21:47;;;;;;;1.55;1.05;;;2.80;86.30;;;;;;5076278;28;20044;-74
2023/01/28 05:24:14;;;;;;;1.70;1.10;;;2.80;86.40;;;;;;5094379;28;20048;-74
2023/01/28 05:26:40;;;;;;;1.20;0.80;;;2.70;86.20;;;;;;5076003;28;20036;-74
2023/01/28 05:29:06;;;;;;;1.50;1.13;;;2.70;86.30;;;;;;5094163;28;20490;-73
2023/01/28 05:31:32;;;;;;;1.08;0.70;;;2.70;86.20;;;;;;5094589;28;20032;-74
2023/01/28 05:33:58;;;;;;;1.40;0.93;;;2.70;86.30;;;;;;5092177;28;20042;-74
2023/01/28 05:36:23;;;;;;;1.35;0.80;;;2.80;86.30;;;;;;5094078;28;20032;-74
2023/01/28 05:38:49;;;;;;;1.17;0.80;;;2.70;86.30;;;;;;5059402;28;20040;-74
2023/01/28 05:41:16;;;;;;;0.82;0.63;;;2.70;86.30;;;;;;5059144;28;20464;-74
2023/01/28 05:43:42;;;;;;;0.95;0.70;;;2.60;86.20;;;;;;5075771;28;20485;-74
2023/01/28 05:46:08;;;;;;;0.50;0.50;;;2.70;86.30;;;;;;5093961;28;20043;-74
2023/01/28 05:48:33;;;;;;;1.35;0.75;;;2.60;86.20;;;;;;5094204;28;20032;-74
2023/01/28 05:50:59;;;;;;;0.80;0.65;;;2.60;86.20;;;;;;5094072;28;20097;-74
2023/01/28 05:53:25;;;;;;;0.70;0.60;;;2.60;86.20;;;;;;5094234;28;20440;-74
2023/01/28 05:55:52;;;;;;;1.13;0.70;;;2.60;86.30;;;;;;5058976;28;20467;-74
2023/01/28 05:58:18;;;;;;;1.70;0.98;;;2.60;86.20;;;;;;5093754;28;20043;-74
2023/01/28 06:00:44;;;;;;;1.48;0.90;;;2.60;86.20;;;;;;5094098;28;20071;-73
2023/01/28 06:03:10;;;;;;;1.70;1.00;;;2.60;86.20;;;;;;5075749;28;20083;-74
2023/01/28 06:05:36;;;;;;;1.23;0.90;;;2.50;86.10;;;;;;5094198;28;20048;-74
2023/01/28 06:08:02;;;;;;;1.15;0.70;;;2.50;86.10;;;;;;5093606;28;20040;-74
2023/01/28 06:10:27;;;;;;;1.40;0.70;;;2.50;86.10;;;;;;5075517;28;20040;-74
2023/01/28 06:12:53;;;;;;;1.25;0.85;;;2.50;86.20;;;;;;5058697;28;20046;-73
2023/01/28 06:15:19;;;;;;;0.93;0.70;;;2.50;86.20;;;;;;5058676;28;20573;-74
2023/01/28 06:17:44;;;;;;;0.82;0.55;;;2.40;86.10;;;;;;5075443;28;20032;-73
2023/01/28 06:20:10;;;;;;;2.33;1.05;;;2.50;86.20;;;;;;5058703;28;20062;-74
2023/01/28 06:22:36;;;;;;;1.48;0.90;;;2.50;86.10;;;;;;5075359;28;20120;-74
2023/01/28 06:25:01;;;;;;;1.00;0.70;;;2.50;86.10;;;;;;5093208;28;20058;-74
2023/01/28 06:27:27;;;;;;;0.50;0.50;;;2.50;86.10;;;;;;5074006;28;20040;-74
2023/01/28 06:29:53;;;;;;;1.05;0.77;;;2.50;86.10;;;;;;5075537;28;20040;-74
2023/01/28 06:32:18;;;;;;;1.05;0.75;;;2.50;86.10;;;;;;5075575;28;20040;-74
2023/01/28 06:34:44;;;;;;;1.52;0.93;;;2.50;86.00;;;;;;5093322;28;20085;-74
2023/01/28 06:37:13;;;;;;;1.02;0.60;;;2.60;86.10;;;;;;5093073;28;20079;-74
2023/01/28 06:39:39;;;;;;;1.42;0.77;;;2.50;86.00;;;;;;5093013;28;20401;-75
2023/01/28 06:42:04;;;;;;;1.23;0.57;;;2.50;86.00;;;;;;5058295;28;20048;-74
2023/01/28 06:44:30;;;;;;;1.67;0.93;;;2.50;85.90;;;;;;5093386;28;20481;-74
2023/01/28 06:46:56;;;;;;;0.93;0.52;;;2.50;86.00;;;;;;5092869;28;20044;-74
2023/01/28 06:49:21;;;;;;;1.17;0.68;;;2.40;86.00;;;;;;5092907;28;20390;-74
2023/01/28 06:51:47;;;;;;;0.90;0.50;;;2.40;85.90;;;;;;5058443;28;20123;-74
2023/01/28 06:54:13;;;;;;;1.83;0.90;;;2.40;86.00;;;;;;5074801;28;20070;-73
2023/01/28 06:56:38;;;;;;;1.33;0.82;;;2.40;85.90;;;;;;5074826;28;20181;-74
2023/01/28 06:59:04;;;;;;;1.42;0.77;;;2.40;85.90;;;;;;5074451;28;20040;-74
2023/01/28 07:01:30;;;;;;;1.45;0.80;;;2.40;86.50;;;;;;5092597;28;20075;-72
2023/01/28 07:03:56;;;;;;;2.22;1.08;;;2.40;86.00;;;;;;5074456;28;20044;-72
2023/01/28 07:06:22;;;;;;;1.40;0.75;;;2.30;85.80;;;;;;5092842;28;20220;-73
2023/01/28 07:08:48;;;;;;;2.13;1.08;;;2.30;85.80;;;;;;5075015;28;20038;-74
2023/01/28 07:11:14;;;;;;;1.67;0.90;;;2.30;85.90;;;;;;5092698;28;20485;-74
2023/01/28 07:13:40;;;;;;;1.92;0.98;;;2.30;85.80;;;;;;5092797;28;20089;-74
2023/01/28 07:16:06;;;;;;;1.13;0.70;;;2.30;85.90;;;;;;5074763;28;20036;-74
2023/01/28 07:18:32;;;;;;;1.33;0.80;;;2.20;85.80;;;;;;5074525;28;20497;-74
2023/01/28 07:20:58;;;;;;;1.33;0.68;;;2.30;85.90;;;;;;5074467;28;20047;-74
2023/01/28 07:23:23;;;;;;;1.60;0.85;;;2.30;85.90;;;;;;5074467;28;20082;-72
2023/01/28 07:25:49;;;;;;;1.20;0.60;;;2.30;85.90;;;;;;5092626;28;20048;-72
2023/01/28 07:28:20;;;;;;;1.67;0.93;;;2.30;85.80;;;;;;5074500;28;20052;-74
2023/01/28 07:30:48;;;;;;;0.87;0.67;;;2.30;85.90;;;;;;5074313;28;20130;-74
2023/01/28 07:33:14;;;;;;;2.22;1.10;;;2.20;85.70;;;;;;5092404;28;20096;-72
2023/01/28 07:35:39;;;;;;;1.38;0.80;;;2.20;85.70;;;;;;5092579;28;20068;-72
2023/01/28 07:38:05;;;;;;;1.05;0.70;;;2.20;85.70;;;;;;5092464;28;20126;-75
2023/01/28 07:40:30;;;;;;;1.30;0.75;;;2.20;85.80;;;;;;5073846;28;20398;-74
2023/01/28 07:42:56;;;;;;;1.58;0.95;;;2.20;85.70;;;;;;5092333;28;20040;-75
2023/01/28 07:45:23;;;;;;;1.63;1.00;;;2.20;85.60;;;;;;5092361;28;20068;-74
2023/01/28 07:47:58;;;;;;;1.80;1.05;;;2.20;85.70;;;;;;5074255;28;20525;-74
2023/01/28 07:50:25;;;;;;;1.40;0.80;;;2.20;85.70;;;;;;5074867;28;20044;-74
2023/01/28 07:52:51;;;;;;;1.63;1.08;;;2.20;85.70;;;;;;5074453;28;20056;-74
2023/01/28 07:55:17;;;;;;;1.95;0.90;;;2.20;85.60;;;;;;5092180;28;20501;-74
2023/01/28 07:57:55;;;;;;;1.63;1.10;;;2.20;85.60;;;;;;5073905;28;20121;-72
2023/01/28 08:00:22;;;;;;;1.13;0.55;;;2.30;85.70;;;;;;5092514;28;20520;-74
2023/01/28 08:02:48;;;;;;;1.08;0.63;;;2.20;85.50;;;;;;5092069;28;20048;-72
2023/01/28 08:05:19;;;;;;;1.27;0.77;;;2.30;85.60;;;;;;5092110;28;20146;-72
2023/01/28 08:07:47;;;;;;;1.23;0.80;;;2.30;85.50;;;;;;5073924;28;20037;-74
2023/01/28 08:10:13;;;;;;;1.80;0.95;;;2.30;85.50;;;;;;5073910;28;20036;-71
2023/01/28 08:12:39;;;;;;;1.40;0.90;;;2.30;85.50;;;;;;5091968;28;20478;-74
2023/01/28 08:15:05;;;;;;;2.05;1.00;;;2.30;85.50;;;;;;5092427;28;20085;-72
2023/01/28 08:17:31;;;;;;;1.35;0.93;;;2.30;85.40;;;;;;5073836;28;20043;-74
2023/01/28 08:19:56;;;;;;;1.50;0.93;;;2.30;85.40;;;;;;5074191;28;20474;-74
2023/01/28 08:22:26;;;;;;;1.70;1.05;;;2.20;85.40;;;;;;5073678;28;20065;-75
2023/01/28 08:24:52;;;;;;;1.02;0.75;;;2.30;85.40;;;;;;5073927;28;20543;-75
2023/01/28 08:27:18;;;;;;;1.40;0.80;;;2.30;85.40;;;;;;5091839;28;20040;-74
2023/01/28 08:29:44;;;;;;;2.03;1.10;;;2.30;85.40;;;;;;5073951;28;20040;-72
2023/01/28 08:32:10;;;;;;;1.65;0.93;;;2.30;85.40;;;;;;5073719;28;20401;-74
2023/01/28 08:34:35;;;;;;;1.42;1.00;;;2.30;86.00;;;;;;5091738;28;20036;-74
2023/01/28 08:37:01;;;;;;;1.50;0.95;;;2.30;85.40;;;;;;5091779;28;20054;-74
2023/01/28 08:39:27;;;;;;;1.25;0.85;;;2.30;85.30;;;;;;5073557;28;20044;-74
2023/01/28 08:41:52;;;;;;;1.27;0.80;;;2.20;85.20;;;;;;5091611;28;20042;-74
2023/01/28 08:44:18;;;;;;;1.92;1.10;;;2.20;85.30;;;;;;5073585;28;20113;-74
2023/01/28 08:46:43;;;;;;;1.75;1.10;;;2.20;85.30;;;;;;5073407;28;20043;-74
2023/01/28 08:49:09;;;;;;;1.42;0.95;;;2.30;85.30;;;;;;5055834;28;20044;-74
2023/01/28 08:51:35;;;;;;;1.17;0.90;;;2.30;85.30;;;;;;5093458;28;20457;-74
2023/01/28 08:54:01;;;;;;;1.40;0.88;;;2.30;85.30;;;;;;5059915;28;20044;-74
2023/01/28 08:56:26;;;;;;;2.38;1.20;;;2.30;85.20;;;;;;5095165;28;20040;-74
2023/01/28 08:58:52;;;;;;;1.17;0.70;;;2.30;85.20;;;;;;5059975;28;20044;-74
2023/01/28 09:01:17;;;;;;;0.93;0.75;;;2.30;85.30;;;;;;5076961;28;20048;-74
2023/01/28 09:03:43;;;;;;;1.15;0.77;;;2.20;85.20;;;;;;5076539;28;20043;-74
2023/01/28 09:06:09;;;;;;;1.42;0.82;;;2.20;85.20;;;;;;5076806;28;20047;-74
2023/01/28 09:08:34;;;;;;;1.63;1.02;;;2.30;85.20;;;;;;5060378;28;20048;-74
2023/01/28 09:11:00;;;;;;;1.40;0.88;;;2.30;85.20;;;;;;5076741;28;20036;-74
2023/01/28 09:13:26;;;;;;;1.23;0.90;;;2.30;85.20;;;;;;5078896;28;20428;-74
2023/01/28 09:15:52;;;;;;;1.35;0.90;;;2.30;85.20;;;;;;5059725;28;20070;-74
2023/01/28 09:18:18;;;;;;;1.48;0.98;;;2.30;85.20;;;;;;5095025;28;20047;-75
2023/01/28 09:20:44;;;;;;;1.00;0.70;;;2.30;85.10;;;;;;5059080;28;20044;-74
2023/01/28 09:23:10;;;;;;;1.55;1.08;;;2.40;85.10;;;;;;5094552;28;20048;-74
2023/01/28 09:25:35;;;;;;;1.65;1.00;;;2.30;85.10;;;;;;5076796;28;20078;-74
2023/01/28 09:28:02;;;;;;;1.63;0.90;;;2.30;85.00;;;;;;5076363;28;20040;-74
2023/01/28 09:30:28;;;;;;;1.27;0.75;;;2.30;85.00;;;;;;5094395;28;20040;-74
2023/01/28 09:32:55;;;;;;;1.60;1.00;;;2.40;85.00;;;;;;5076096;28;20032;-74
2023/01/28 09:35:21;;;;;;;1.48;0.82;;;2.40;84.90;;;;;;5076631;28;20442;-73
2023/01/28 09:37:47;;;;;;;1.35;0.90;;;2.40;84.80;;;;;;5060010;28;20143;-74
2023/01/28 09:40:36;;;;;;;1.25;0.90;;;2.40;84.80;;;;;;5076080;28;20044;-74
2023/01/28 09:43:29;;;;;;;0.80;0.70;;;2.40;84.70;;;;;;5075951;28;20071;-74
2023/01/28 09:45:59;;;;;;;0.90;0.80;;;2.50;84.80;;;;;;5074356;28;20135;-74
2023/01/28 09:48:31;;;;;;;0.77;0.60;;;2.50;84.70;;;;;;5075951;28;20547;-74
2023/01/28 09:50:58;;;;;;;0.60;0.57;;;2.50;84.60;;;;;;5076082;28;20036;-74
2023/01/28 09:53:30;;;;;;;1.05;0.65;;;2.60;84.60;;;;;;5076150;28;20161;-74
2023/01/28 09:56:01;;;;;;;1.10;0.80;;;2.60;84.70;;;;;;5093929;28;20068;-74
2023/01/28 09:58:26;;;;;;;0.73;0.68;;;2.70;84.60;;;;;;5076415;28;20040;-74
2023/01/28 10:01:28;;;;;;;0.73;0.60;;;2.80;84.50;;;;;;5093744;28;20050;-75
2023/01/28 10:04:28;;;;;;;0.45;0.45;;;2.80;84.40;;;;;;5075450;28;20631;-74
2023/01/28 10:07:14;;;;;;;0.65;0.65;;;2.80;84.20;;;;;;5093524;28;20043;-74
2023/01/28 10:10:02;;;;;;;0.80;0.70;;;2.90;84.20;;;;;;5093996;28;20525;-74
2023/01/28 10:12:52;;;;;;;1.10;0.77;;;3.10;84.20;;;;;;5092276;28;20044;-74
2023/01/28 10:15:45;;;;;;;0.70;0.50;;;3.10;84.00;;;;;;5094095;28;20113;-74
2023/01/28 10:18:12;;;;;;;0.52;0.52;;;3.10;83.90;;;;;;5047362;28;20040;-74
2023/01/28 10:20:44;;;;;;;0.52;0.50;;;3.10;83.90;;;;;;5093532;28;20127;-74
2023/01/28 10:23:27;;;;;;;;;;;3.20;83.90;;;;;;5094418;28;20040;-74
2023/01/28 10:25:56;;;;;;;0.80;0.80;;;3.20;83.90;;;;;;5075015;28;19912;-75
2023/01/28 10:28:27;;;;;;;1.00;0.80;;;3.20;83.80;;;;;;5093785;28;20040;-74
2023/01/28 10:30:53;;;;;;;1.10;0.70;;;3.30;83.80;;;;;;5075192;28;20036;-74
2023/01/28 10:33:27;;;;;;;0.50;0.50;;;3.40;83.70;;;;;;5075341;28;20101;-74
2023/01/28 10:35:55;;;;;;;1.00;0.65;;;3.40;83.70;;;;;;5093599;28;20063;-74
2023/01/28 10:38:24;;;;;;;0.98;0.80;;;3.40;83.60;;;;;;5075147;28;20056;-74
2023/01/28 10:40:50;;;;;;;0.70;0.70;;;3.50;83.60;;;;;;5075143;28;20108;-74
2023/01/28 10:43:23;;;;;;;0.90;0.68;;;3.60;84.20;;;;;;5075236;28;20043;-74
2023/01/28 10:46:01;;;;;;;1.20;0.80;;;3.50;83.50;;;;;;5075146;28;20165;-74
2023/01/28 10:48:33;;;;;;;0.85;0.77;;;3.60;83.60;;;;;;5076172;28;20382;-75
2023/01/28 10:51:03;;;;;;;0.82;0.75;;;3.60;83.70;;;;;;5093133;28;20105;-74
2023/01/28 10:53:42;;;;;;;0.60;0.60;;;3.80;83.70;;;;;;5073314;28;20508;-74
2023/01/28 10:56:16;;;;;;;1.48;0.70;;;3.70;83.50;;;;;;5058021;28;20277;-74
2023/01/28 10:58:57;;;;;;;0.68;0.60;;;3.80;83.50;;;;;;5058549;28;20503;-74
2023/01/28 11:01:23;;;;;;;1.35;0.80;;;3.90;83.40;;;;;;5093391;28;20100;-74
2023/01/28 11:03:57;;;;;;;0.60;0.47;;;3.90;83.30;;;;;;5074895;28;20123;-74
2023/01/28 11:06:25;;;;;;;1.05;0.60;;;4.00;83.30;;;;;;5074721;28;20101;-74
2023/01/28 11:08:51;;;;;;;0.70;0.70;;;4.00;83.20;;;;;;5092603;28;20043;-74
2023/01/28 11:11:24;;;;;;;0.70;0.57;;;4.10;83.30;;;;;;5074567;28;20398;-74
2023/01/28 11:13:52;;;;;;;1.08;0.77;;;4.20;83.30;;;;;;5092277;28;20529;-73
2023/01/28 11:16:19;;;;;;;0.70;0.57;;;4.30;83.10;;;;;;5072993;28;20033;-73
2023/01/28 11:18:56;;;;;;;1.42;0.75;;;4.30;83.10;;;;;;5092703;28;20046;-73
2023/01/28 11:21:26;;;;;;;0.93;0.70;;;4.30;83.00;;;;;;5075402;28;20048;-72
2023/01/28 11:23:59;;;;;;;0.77;0.63;;;4.40;83.10;;;;;;5092523;28;20051;-73
2023/01/28 11:26:28;;;;;;;1.27;0.70;;;4.50;83.10;;;;;;5092647;28;20048;-72
2023/01/28 11:28:54;;;;;;;0.93;0.70;;;4.50;82.70;;;;;;5057459;28;20040;-73
2023/01/28 11:31:23;;;;;;;1.50;0.68;;;4.50;82.70;;;;;;5074285;28;20050;-72
2023/01/28 11:33:52;;;;;;;0.70;0.52;;;4.50;82.70;;;;;;5072462;28;20036;-72
2023/01/28 11:36:24;;;;;;;1.00;0.70;;;4.50;82.70;;;;;;5092684;28;20406;-72
2023/01/28 11:38:53;;;;;;;1.55;0.77;;;4.40;82.80;;;;;;5074328;28;20123;-73
2023/01/28 11:41:31;;;;;;;1.33;0.90;;;4.30;83.10;;;;;;5092648;28;20525;-72
2023/01/28 11:43:59;;;;;;;0.93;0.65;;;4.30;83.20;;;;;;5074535;28;20043;-73
2023/01/28 11:46:57;;;;;;;0.80;0.70;;;4.30;83.30;;;;;;5074369;28;20482;-72
2023/01/28 11:49:37;;;;;;;0.93;0.57;;;4.30;83.40;;;;;;5060454;28;20040;-72
2023/01/28 11:52:20;;;;;;;1.42;0.95;;;4.30;83.40;;;;;;5058948;28;20044;-72
2023/01/28 11:55:15;;;;;;;0.93;0.70;;;4.30;83.40;;;;;;5073956;28;20498;-73
2023/01/28 11:57:59;;;;;;;0.93;0.70;;;4.40;83.40;;;;;;5091936;28;20043;-74
2023/01/28 12:00:51;;;;;;;1.65;0.77;;;4.40;83.40;;;;;;5074105;28;20048;-74
2023/01/28 12:03:32;;;;;;;1.27;0.70;;;4.40;83.40;;;;;;5058816;28;20543;-74
2023/01/28 12:06:38;;;;;;;0.93;0.70;;;4.40;84.00;;;;;;5092349;28;20505;-74
2023/01/28 12:09:24;;;;;;;0.82;0.70;;;4.40;83.40;;;;;;5076943;28;20040;-74
2023/01/28 12:12:21;;;;;;;0.77;0.60;;;4.50;83.30;;;;;;5073876;28;20036;-74
2023/01/28 12:15:08;;;;;;;0.65;0.47;;;4.50;83.20;;;;;;5078154;28;20048;-74
2023/01/28 12:17:57;;;;;;;0.80;0.50;;;4.70;83.20;;;;;;5091793;28;20048;-74
2023/01/28 12:20:47;;;;;;;1.05;0.70;;;4.80;83.10;;;;;;5091821;28;20432;-74
2023/01/28 12:23:37;;;;;;;1.08;0.80;;;4.90;82.70;;;;;;5091650;28;20137;-74
2023/01/28 12:26:12;;;;;;;1.45;0.90;;;5.00;82.40;;;;;;5058629;28;20148;-74
2023/01/28 12:28:56;;;;;;;1.58;0.95;;;5.10;82.20;;;;;;5076947;28;20524;-74
2023/01/28 12:31:48;;;;;;;1.35;0.90;;;5.20;81.70;;;;;;5079035;28;20036;-74
2023/01/28 12:34:47;;;;;;;2.08;0.90;;;5.20;81.70;;;;;;5095199;28;20115;-74
2023/01/28 12:37:42;;;;;;;0.90;0.75;;;5.10;81.80;;;;;;5077793;28;20071;-74
2023/01/28 12:40:32;;;;;;;1.60;0.90;;;5.20;81.90;;;;;;5095102;28;20044;-74
2023/01/28 12:43:09;;;;;;;1.02;0.70;;;5.30;81.90;;;;;;5095676;28;20040;-74
2023/01/28 12:45:39;;;;;;;1.30;0.80;;;5.40;81.80;;;;;;5043007;28;20051;-74
2023/01/28 12:48:19;;;;;;;1.30;0.77;;;5.40;81.50;;;;;;5095171;28;20052;-74
2023/01/28 12:50:56;;;;;;;0.80;0.68;;;5.50;81.60;;;;;;5076880;28;20401;-74
2023/01/28 12:53:32;;;;;;;1.38;1.00;;;5.60;81.40;;;;;;5076768;28;20059;-74
2023/01/28 12:56:07;;;;;;;1.42;0.82;;;5.60;81.20;;;;;;5095175;28;20042;-74
2023/01/28 12:58:41;;;;;;;1.55;0.88;;;5.60;81.10;;;;;;5094881;28;20078;-74
2023/01/28 13:01:13;;;;;;;1.05;0.88;;;5.50;81.20;;;;;;5094962;28;20040;-74
2023/01/28 13:04:03;;;;;;;1.65;0.80;;;5.50;81.30;;;;;;5076608;28;20083;-74
2023/01/28 13:06:54;;;;;;;0.82;0.70;;;5.50;81.40;;;;;;5094578;28;20044;-74
2023/01/28 13:09:23;;;;;;;1.45;0.90;;;5.50;81.50;;;;;;5076577;28;20040;-74
2023/01/28 13:11:51;;;;;;;1.58;0.90;;;5.50;81.50;;;;;;5094505;28;20068;-74
2023/01/28 13:14:19;;;;;;;1.23;0.90;;;5.50;81.60;;;;;;5094603;28;20123;-74
2023/01/28 13:16:44;;;;;;;1.35;0.80;;;5.50;81.70;;;;;;5076581;28;20078;-73
2023/01/28 13:19:34;;;;;;;1.00;0.80;;;5.60;81.50;;;;;;5094914;28;20394;-74
2023/01/28 13:22:11;;;;;;;1.55;0.98;;;5.60;81.40;;;;;;5094655;28;20126;-74
2023/01/28 13:24:36;;;;;;;0.80;0.80;;;5.70;81.30;;;;;;5077032;28;20040;-74
2023/01/28 13:27:11;;;;;;;1.13;0.70;;;5.60;81.20;;;;;;5094419;28;20040;-74
2023/01/28 13:29:37;;;;;;;1.20;0.80;;;5.60;81.40;;;;;;5076900;28;20524;-74
2023/01/28 13:32:27;;;;;;;1.05;0.80;;;5.70;81.40;;;;;;5094875;28;20068;-74
2023/01/28 13:35:00;;;;;;;1.35;0.93;;;5.60;81.40;;;;;;5076346;28;20044;-74
2023/01/28 13:37:38;;;;;;;1.42;0.80;;;5.60;81.50;;;;;;5093556;28;20036;-75
2023/01/28 13:40:22;;;;;;;1.15;0.80;;;5.50;81.70;;;;;;5094715;28;20089;-75
2023/01/28 13:42:58;;;;;;;1.45;0.93;;;5.60;81.60;;;;;;5094282;28;20575;-74
2023/01/28 13:45:24;;;;;;;1.08;0.90;;;5.50;81.70;;;;;;5094826;28;20063;-72
2023/01/28 13:47:57;;;;;;;1.63;0.90;;;5.60;81.70;;;;;;5075995;28;20397;-74
2023/01/28 13:50:30;;;;;;;1.75;1.00;;;5.60;81.60;;;;;;5075775;28;20040;-73
2023/01/28 13:53:02;;;;;;;1.10;0.90;;;5.60;81.50;;;;;;5027050;28;20060;-73
2023/01/28 13:55:37;;;;;;;1.48;1.00;;;5.70;81.60;;;;;;5093938;28;20040;-73
2023/01/28 13:58:31;;;;;;;2.33;1.30;;;5.70;81.50;;;;;;5059237;28;20044;-73